KMEB

Laurinburg-Maxton Airport

Maxton, North Carolina, USA
METAR KMEB 172152Z AUTO 24011KT 10SM BKN055 BKN070 33/22 A3006 RMK AO2 SLP177 T03330217 TSNO
Observed Flight Rules
Aug-17 @ 21:52 UTC (45 minutes ago) Visual Flight Rules
Wind Visibility Clouds
240° at 11 knots 10 miles
  • Broken at 5,500' AGL
  • Broken at 7,000' AGL
Temperatures Readings
Current 33°C / 91°F
Dewpoint 22°C / 72°F
Humidity 52%
Altimeter 30.06" Hg
Pressure 1017.7 hPa
Elevation 67
METAR KMEB 172152Z AUTO 24011KT 10SM BKN055 BKN070 33/22 A3006 RMK AO2 SLP177 T03330217 TSNO
Observed Flight Rules
Aug-17 @ 21:52 UTC
(45 minutes ago)
VFR
Wind Visibility
240° at 11 knots 10 miles
Clouds
  • Broken at 5,500' AGL
  • Broken at 7,000' AGL
Temperature Dewpoint
33°C / 91°F 22°C / 72°F
Humidity Altimeter Pressure
52% 30.06" Hg 1017.7 hPa